createdAt,value
2019-02-09T06:10:15.853Z,100.00
2019-02-09T06:12:49.380Z,100.00
2019-02-09T06:15:22.296Z,100.00
2019-02-09T06:17:54.964Z,100.00
2019-02-09T06:20:27.946Z,100.00
2019-02-09T06:23:02.309Z,100.00
2019-02-09T06:25:35.968Z,100.00
2019-02-09T06:28:09.012Z,100.00
2019-02-09T06:30:42.073Z,100.00
2019-02-09T06:33:15.059Z,100.00
2019-02-09T06:35:51.427Z,100.00
2019-02-09T06:38:24.410Z,100.00
2019-02-09T06:40:59.095Z,100.00
2019-02-09T06:43:32.805Z,100.00
2019-02-09T06:46:06.651Z,100.00
2019-02-09T06:48:40.425Z,100.00
2019-02-09T06:51:13.435Z,100.00
2019-02-09T06:53:46.536Z,100.00
2019-02-09T06:56:19.602Z,100.00
2019-02-09T06:58:52.621Z,100.00
2019-02-09T07:01:26.117Z,100.00
2019-02-09T07:03:59.601Z,100.00
2019-02-09T07:06:33.019Z,100.00
2019-02-09T07:09:08.811Z,100.00
2019-02-09T07:11:43.277Z,100.00
2019-02-09T07:14:16.380Z,100.00
2019-02-09T07:16:50.509Z,100.00
2019-02-09T07:19:26.100Z,100.00
2019-02-09T07:21:59.943Z,100.00
2019-02-09T07:24:33.534Z,100.00
2019-02-09T07:27:07.474Z,99.58
2019-02-09T07:29:40.430Z,100.00
2019-02-09T07:32:13.535Z,100.00
2019-02-09T07:34:47.022Z,100.00
2019-02-09T07:37:20.332Z,98.96
2019-02-09T07:39:55.136Z,98.45
2019-02-09T07:42:27.998Z,97.97
2019-02-09T07:45:02.880Z,96.61
2019-02-09T07:47:36.356Z,96.75
2019-02-09T07:50:10.985Z,95.51
2019-02-09T07:52:45.462Z,95.83
2019-02-09T07:55:20.878Z,94.72
2019-02-09T07:57:54.021Z,95.55
2019-02-09T08:00:28.117Z,94.47
2019-02-09T08:03:01.662Z,93.21
2019-02-09T08:05:34.934Z,94.83
2019-02-09T08:08:08.065Z,94.60
2019-02-09T08:10:40.623Z,94.11
2019-02-09T08:13:14.326Z,95.58
2019-02-09T08:15:47.823Z,93.87
2019-02-09T08:18:21.381Z,93.48
2019-02-09T08:20:54.641Z,92.01
2019-02-09T08:23:27.009Z,93.67
2019-02-09T08:26:01.655Z,93.95
2019-02-09T08:28:35.614Z,92.61
2019-02-09T08:31:10.448Z,91.38
2019-02-09T08:33:43.753Z,90.61
2019-02-09T08:36:17.973Z,89.31
2019-02-09T08:38:51.225Z,88.67
2019-02-09T08:41:23.894Z,87.43
2019-02-09T08:43:57.111Z,85.83
2019-02-09T08:46:30.476Z,86.17
2019-02-09T08:49:03.223Z,83.82
2019-02-09T08:51:36.308Z,83.38
2019-02-09T08:54:10.207Z,83.27
2019-02-09T08:56:42.866Z,85.35
2019-02-09T08:59:15.582Z,86.63
2019-02-09T09:01:48.163Z,86.32
2019-02-09T09:04:22.488Z,85.63
2019-02-09T09:06:58.400Z,87.10
2019-02-09T09:09:32.417Z,85.73
2019-02-09T09:12:05.309Z,85.57
2019-02-09T09:14:38.358Z,86.96
2019-02-09T09:17:11.869Z,86.26
2019-02-09T09:19:45.274Z,86.24
2019-02-09T09:22:18.289Z,88.14
2019-02-09T09:24:51.341Z,85.94
2019-02-09T09:27:24.403Z,86.28
2019-02-09T09:29:57.028Z,87.56
2019-02-09T09:32:30.059Z,87.68
2019-02-09T09:35:04.627Z,86.12
2019-02-09T09:37:38.755Z,85.76
2019-02-09T09:40:24.192Z,81.37
2019-02-09T09:42:59.184Z,79.03
2019-02-09T09:45:33.374Z,84.06
2019-02-09T09:48:07.907Z,83.11
2019-02-09T09:50:41.066Z,77.41
2019-02-09T09:53:14.017Z,77.43
2019-02-09T09:55:47.908Z,75.75
2019-02-09T09:58:21.029Z,78.97
2019-02-09T10:00:53.259Z,79.54
2019-02-09T10:03:26.783Z,77.42
2019-02-09T10:05:59.908Z,75.45
2019-02-09T10:08:33.715Z,71.11
2019-02-09T10:11:07.836Z,70.86
2019-02-09T10:13:41.329Z,76.48
2019-02-09T10:16:15.193Z,77.62
2019-02-09T10:18:49.218Z,73.51
2019-02-09T10:21:22.625Z,69.27
2019-02-09T10:23:56.659Z,68.81
2019-02-09T10:26:32.966Z,71.83
2019-02-09T10:29:06.335Z,74.57
2019-02-09T10:31:40.123Z,79.55
2019-02-09T10:34:13.485Z,84.18
2019-02-09T10:36:47.868Z,90.54
2019-02-09T10:39:44.662Z,99.39
2019-02-09T10:42:22.089Z,100.00
2019-02-09T10:48:05.164Z,100.00
2019-02-09T10:50:44.345Z,100.00
2019-02-09T10:53:17.082Z,96.54
2019-02-09T10:55:51.717Z,96.26
2019-02-09T10:58:24.718Z,85.72
2019-02-09T11:01:06.492Z,87.45
2019-02-09T11:03:40.049Z,91.89
2019-02-09T11:06:13.121Z,91.08
2019-02-09T11:08:46.204Z,86.47
2019-02-09T11:11:19.369Z,84.63
2019-02-09T11:13:52.254Z,83.34
2019-02-09T11:16:25.592Z,80.07
2019-02-09T11:18:58.990Z,81.04
2019-02-09T11:21:32.855Z,78.32
2019-02-09T11:24:06.023Z,77.19
2019-02-09T11:26:39.852Z,78.98
2019-02-09T11:29:12.476Z,79.34
2019-02-09T11:31:46.305Z,77.88
2019-02-09T11:34:19.766Z,76.98
2019-02-09T11:36:53.461Z,73.10
2019-02-09T11:39:25.738Z,71.26
2019-02-09T11:41:58.729Z,69.38
2019-02-09T11:44:41.044Z,70.39
2019-02-09T11:47:09.725Z,71.45
2019-02-09T11:49:45.673Z,73.58
2019-02-09T11:52:19.263Z,74.50
2019-02-09T11:54:52.259Z,72.39
2019-02-09T11:57:29.550Z,73.52
2019-02-09T12:00:02.695Z,71.26
2019-02-09T12:02:36.645Z,71.04
2019-02-09T12:05:10.183Z,67.71
2019-02-09T12:07:44.043Z,70.98
2019-02-09T12:10:17.956Z,71.98
2019-02-09T12:12:51.080Z,71.32
2019-02-09T12:15:26.999Z,71.29
2019-02-09T12:18:00.221Z,71.92
2019-02-09T12:20:33.817Z,70.48
2019-02-09T12:23:07.008Z,73.84
2019-02-09T12:25:40.663Z,73.30
2019-02-09T12:28:14.815Z,72.19
2019-02-09T12:30:48.312Z,75.14
2019-02-09T12:33:23.509Z,75.99
2019-02-09T12:35:57.092Z,75.74
2019-02-09T12:38:30.120Z,74.84
2019-02-09T12:41:03.618Z,74.44
2019-02-09T12:43:37.147Z,73.19
2019-02-09T12:46:10.608Z,75.17
2019-02-09T12:48:44.757Z,74.75
2019-02-09T12:51:18.475Z,73.36
2019-02-09T12:53:52.248Z,73.89
2019-02-09T12:56:25.266Z,76.25
2019-02-09T12:58:59.185Z,74.66
2019-02-09T13:01:32.756Z,74.79
2019-02-09T13:04:05.900Z,74.52
2019-02-09T13:06:38.951Z,71.09
2019-02-09T13:09:12.438Z,74.61
2019-02-09T13:11:45.574Z,69.59
2019-02-09T13:14:19.833Z,70.37
2019-02-09T13:16:52.972Z,70.21
2019-02-09T13:19:26.428Z,68.85
2019-02-09T13:22:01.550Z,68.24
2019-02-09T13:24:42.501Z,69.75
2019-02-09T13:27:16.367Z,71.15
2019-02-09T13:29:49.776Z,74.51
2019-02-09T13:32:22.957Z,72.81
2019-02-09T13:34:56.766Z,72.86
2019-02-09T13:37:30.276Z,70.10
2019-02-09T13:40:04.871Z,72.76
2019-02-09T13:42:38.199Z,73.26
2019-02-09T13:45:18.738Z,71.14
2019-02-09T13:47:52.881Z,72.47
2019-02-09T13:50:27.135Z,71.19
2019-02-09T13:53:01.204Z,72.75
2019-02-09T13:55:35.006Z,75.57
2019-02-09T13:58:36.440Z,79.94
2019-02-09T14:01:09.570Z,89.83
2019-02-09T14:03:46.887Z,95.59
2019-02-09T14:06:19.304Z,100.00
2019-02-09T14:08:52.399Z,99.29
2019-02-09T14:11:25.424Z,99.75
2019-02-09T14:13:59.428Z,96.98
2019-02-09T14:16:38.598Z,97.49
2019-02-09T14:19:08.548Z,97.69
2019-02-09T14:21:42.117Z,99.09
2019-02-09T14:24:16.162Z,95.23
2019-02-09T14:26:50.077Z,96.42
2019-02-09T14:29:23.155Z,95.54
2019-02-09T14:31:57.458Z,93.91
2019-02-09T14:34:33.328Z,91.28
2019-02-09T14:37:06.347Z,87.60
2019-02-09T14:39:39.705Z,86.70
2019-02-09T14:42:13.743Z,85.01
2019-02-09T14:44:46.903Z,86.41
2019-02-09T14:47:21.365Z,82.90
2019-02-09T14:49:54.805Z,82.95
2019-02-09T14:52:28.286Z,79.02
2019-02-09T14:55:01.470Z,79.98
2019-02-09T14:57:35.097Z,77.89
2019-02-09T15:00:11.721Z,76.89
2019-02-09T15:02:45.207Z,76.76
2019-02-09T15:05:18.517Z,77.01
2019-02-09T15:07:51.128Z,79.41
2019-02-09T15:10:25.011Z,81.12
2019-02-09T15:12:59.321Z,78.87
2019-02-09T15:15:38.338Z,79.94
2019-02-09T15:18:11.924Z,79.25
2019-02-09T15:20:48.626Z,78.63
2019-02-09T15:23:21.742Z,79.15
2019-02-09T15:25:55.445Z,79.83
2019-02-09T15:28:28.913Z,77.69
2019-02-09T15:31:02.519Z,80.60
2019-02-09T15:33:39.369Z,78.83
2019-02-09T15:36:12.485Z,78.55
2019-02-09T15:38:45.567Z,77.44
2019-02-09T15:41:18.256Z,77.16
2019-02-09T15:43:52.150Z,78.53
2019-02-09T15:46:25.186Z,79.74
2019-02-09T15:49:00.543Z,79.90
2019-02-09T15:51:33.775Z,79.23
2019-02-09T15:54:07.195Z,78.32
2019-02-09T15:56:40.161Z,77.30
2019-02-09T15:59:13.178Z,77.43
2019-02-09T16:01:46.573Z,77.67
2019-02-09T16:04:19.242Z,78.52
2019-02-09T16:06:52.325Z,76.20
2019-02-09T16:09:25.419Z,77.52
2019-02-09T16:12:00.403Z,75.04
2019-02-09T16:14:34.214Z,76.80
2019-02-09T16:17:06.973Z,77.08
2019-02-09T16:19:40.419Z,76.45
2019-02-09T16:22:14.113Z,75.03
2019-02-09T16:24:47.816Z,78.69
2019-02-09T16:27:21.121Z,78.06
2019-02-09T16:29:53.861Z,79.26
2019-02-09T16:32:27.646Z,79.81
2019-02-09T16:35:00.511Z,82.18
2019-02-09T16:37:34.025Z,82.93
2019-02-09T16:40:09.059Z,82.79
2019-02-09T16:42:42.665Z,82.74
2019-02-09T16:45:20.854Z,84.17
2019-02-09T16:47:54.702Z,83.95
2019-02-09T16:50:27.955Z,84.61
2019-02-09T16:53:01.092Z,83.97
2019-02-09T16:55:34.167Z,84.16
2019-02-09T16:58:07.472Z,85.24
2019-02-09T17:00:41.675Z,85.26
2019-02-09T17:03:15.675Z,87.00
2019-02-09T17:05:49.859Z,86.64
2019-02-09T17:08:23.293Z,86.56
2019-02-09T17:10:56.871Z,89.08
2019-02-09T17:13:30.176Z,88.34
2019-02-09T17:16:03.649Z,88.72
2019-02-09T17:18:36.661Z,89.61
2019-02-09T17:21:09.800Z,90.50
2019-02-09T17:23:43.584Z,91.13
2019-02-09T17:26:17.182Z,90.96
2019-02-09T17:28:50.661Z,89.72
2019-02-09T17:31:24.600Z,89.88
2019-02-09T17:33:57.886Z,90.86
2019-02-09T17:36:30.860Z,91.19
2019-02-09T17:39:05.606Z,90.57
2019-02-09T17:41:39.624Z,89.65
2019-02-09T17:44:13.499Z,90.09
2019-02-09T17:46:47.018Z,90.60
2019-02-09T17:49:19.671Z,90.93
2019-02-09T17:51:52.804Z,91.80
2019-02-09T17:54:26.308Z,91.60
2019-02-09T17:56:59.782Z,91.85
2019-02-09T17:59:33.352Z,92.08
2019-02-09T18:02:07.481Z,92.79
2019-02-09T18:04:40.144Z,93.00
2019-02-09T18:07:13.594Z,91.95
2019-02-09T18:09:47.377Z,91.23
2019-02-09T18:12:20.606Z,90.75
2019-02-09T18:14:54.057Z,91.49
2019-02-09T18:17:27.479Z,91.15
2019-02-09T18:20:00.638Z,92.30
2019-02-09T18:22:33.633Z,91.02
2019-02-09T18:25:09.038Z,91.84
2019-02-09T18:27:44.829Z,90.10
2019-02-09T18:30:20.074Z,90.44
2019-02-09T18:32:53.321Z,90.29
2019-02-09T18:35:27.460Z,91.02
2019-02-09T18:38:00.740Z,91.09
2019-02-09T18:40:33.884Z,90.11
2019-02-09T18:43:07.170Z,89.73
2019-02-09T18:45:39.897Z,89.70
2019-02-09T18:48:14.190Z,88.66
2019-02-09T18:50:46.912Z,87.45
2019-02-09T18:53:20.051Z,88.00
2019-02-09T18:55:53.391Z,87.79
2019-02-09T18:58:26.542Z,87.22
2019-02-09T19:01:00.123Z,87.05
2019-02-09T19:03:33.708Z,87.81
2019-02-09T19:06:07.548Z,86.96
2019-02-09T19:08:40.764Z,86.58
2019-02-09T19:11:14.020Z,85.76
2019-02-09T19:13:47.228Z,85.91
2019-02-09T19:16:19.918Z,87.47
2019-02-09T19:18:53.819Z,86.46
2019-02-09T19:21:27.183Z,86.43
2019-02-09T19:24:02.514Z,85.79
2019-02-09T19:26:35.652Z,86.18
2019-02-09T19:29:10.440Z,86.87
2019-02-09T19:31:45.441Z,86.71
2019-02-09T19:34:22.047Z,87.61
2019-02-09T19:36:55.662Z,87.17
2019-02-09T19:39:29.860Z,86.57
2019-02-09T19:42:04.006Z,87.76
2019-02-09T19:44:38.607Z,89.05
2019-02-09T19:47:11.393Z,88.38
2019-02-09T19:49:47.531Z,89.00
2019-02-09T19:52:20.249Z,89.63
2019-02-09T19:54:55.038Z,88.36
2019-02-09T19:57:29.008Z,88.45
2019-02-09T20:00:04.297Z,87.99
2019-02-09T20:02:40.697Z,88.57
2019-02-09T20:05:19.724Z,89.51
2019-02-09T20:07:49.866Z,89.05
2019-02-09T20:10:28.284Z,89.13
2019-02-09T20:13:01.672Z,89.53
2019-02-09T20:15:37.829Z,90.44
2019-02-09T20:18:11.598Z,89.52
2019-02-09T20:20:47.382Z,89.33
2019-02-09T20:23:20.480Z,90.66
2019-02-09T20:25:54.056Z,90.23
2019-02-09T20:28:29.612Z,90.80
2019-02-09T20:31:04.109Z,91.66
2019-02-09T20:33:41.375Z,90.37
2019-02-09T20:36:14.612Z,89.20
2019-02-09T20:38:48.811Z,89.91
2019-02-09T20:41:23.046Z,90.14
2019-02-09T20:43:56.426Z,89.48
2019-02-09T20:46:29.713Z,89.03
2019-02-09T20:49:03.721Z,89.45
2019-02-09T20:51:37.064Z,89.33
2019-02-09T20:54:10.883Z,90.17
2019-02-09T20:56:43.971Z,91.62
2019-02-09T20:59:19.637Z,90.78
2019-02-09T21:01:53.641Z,91.11
2019-02-09T21:04:26.758Z,90.36
2019-02-09T21:06:59.920Z,90.22
2019-02-09T21:09:33.304Z,88.47
2019-02-09T21:12:05.969Z,89.61
2019-02-09T21:14:42.126Z,88.77
2019-02-09T21:17:15.939Z,88.59
2019-02-09T21:19:48.667Z,88.15
2019-02-09T21:22:21.784Z,89.92
2019-02-09T21:24:57.436Z,90.31
2019-02-09T21:27:30.601Z,89.13
2019-02-09T21:30:05.141Z,88.44
2019-02-09T21:32:40.429Z,89.41
2019-02-09T21:35:14.281Z,90.28
2019-02-09T21:37:49.180Z,90.20
2019-02-09T21:40:22.913Z,91.13
2019-02-09T21:43:00.849Z,90.84
2019-02-09T21:45:34.253Z,91.26
2019-02-09T21:48:09.811Z,91.26
2019-02-09T21:50:43.534Z,91.15
2019-02-09T21:53:20.389Z,90.23
2019-02-09T21:55:53.490Z,90.28
2019-02-09T21:58:29.150Z,90.35
2019-02-09T22:01:03.321Z,90.12
2019-02-09T22:03:38.004Z,90.74
2019-02-09T22:06:12.668Z,91.18
2019-02-09T22:08:47.816Z,91.00
2019-02-09T22:11:21.122Z,90.38
2019-02-09T22:13:54.429Z,91.22
2019-02-09T22:16:28.118Z,89.91
2019-02-09T22:19:02.114Z,90.10
2019-02-09T22:21:36.079Z,91.00
2019-02-09T22:24:09.540Z,91.10
2019-02-09T22:26:41.816Z,90.42
2019-02-09T22:29:15.722Z,89.98
2019-02-09T22:31:50.406Z,89.19
2019-02-09T22:34:24.317Z,90.08
2019-02-09T22:36:57.338Z,89.70
2019-02-09T22:39:30.094Z,89.73
2019-02-09T22:42:03.311Z,90.32
2019-02-09T22:44:37.505Z,90.77
2019-02-09T22:47:11.048Z,89.61
2019-02-09T22:49:45.028Z,88.85
2019-02-09T22:52:20.743Z,89.31
2019-02-09T22:54:54.095Z,90.11
2019-02-09T22:57:27.503Z,89.37
2019-02-09T23:00:00.203Z,89.64
2019-02-09T23:02:33.164Z,90.29
2019-02-09T23:05:43.825Z,88.56
2019-02-09T23:08:17.610Z,88.71
2019-02-09T23:10:50.294Z,88.93
2019-02-09T23:13:24.011Z,89.04
2019-02-09T23:15:56.815Z,87.96
2019-02-09T23:18:30.002Z,88.37
2019-02-09T23:21:03.881Z,88.05
2019-02-09T23:23:40.207Z,89.22
2019-02-09T23:26:20.834Z,89.64
2019-02-09T23:28:59.264Z,89.14
2019-02-09T23:31:33.127Z,89.37
2019-02-09T23:34:07.672Z,90.01
2019-02-09T23:36:44.423Z,89.83
2019-02-09T23:39:21.982Z,89.41
2019-02-09T23:41:56.708Z,89.84
2019-02-09T23:44:32.908Z,90.51
2019-02-09T23:47:08.377Z,89.74
2019-02-09T23:49:43.993Z,90.73
2019-02-09T23:52:17.270Z,90.83
2019-02-09T23:54:52.799Z,91.43
2019-02-09T23:57:30.407Z,91.16
